Time;durP1;ratioP1;P1;durP2;ratioP2;P2;SDS_P1;SDS_P2;PMS_P1;PMS_P2;Temp;Humidity;BMP_temperature;BMP_pressure;BME280_temperature;BME280_humidity;BME280_pressure;Samples;Min_cycle;Max_cycle;Signal;HPM_P1;HPM_P2
2022/07/28 00:02:23;;;;;;;;;;;;;;;;;;21161911;28;19924;-58
2022/07/28 00:12:25;;;;;;;;;;;;;;;;;;21164074;28;20352;-54
2022/07/28 00:22:26;;;;;;;;;;;;;;;;;;21175601;28;19988;-56
2022/07/28 00:32:28;;;;;;;;;;;;;;;;;;21174704;28;19965;-63
2022/07/28 00:42:30;;;;;;;;;;;;;;;;;;21178114;28;19919;-60
2022/07/28 00:52:31;;;;;;;;;;;;;;;;;;21172079;28;20011;-62
2022/07/28 01:02:33;;;;;;;;;;;;;;;;;;21171735;28;19957;-57
2022/07/28 01:12:35;;;;;;;;;;;;;;;;;;21171832;28;19919;-62
2022/07/28 01:22:39;;;;;;;;;;;;;;;;;;21168924;28;19920;-54
2022/07/28 01:32:42;;;;;;;;;;;;;;;;;;21168813;28;19920;-59
2022/07/28 01:42:45;;;;;;;;;;;;;;;;;;21168952;28;20268;-63
2022/07/28 01:52:48;;;;;;;;;;;;;;;;;;21167214;28;20002;-64
2022/07/28 02:02:54;;;;;;;;;;;;;;;;;;21166808;28;20431;-59
2022/07/28 02:12:59;;;;;;;;;;;;;;;;;;21165540;28;20010;-63
2022/07/28 02:23:03;;;;;;;;;;;;;;;;;;21166762;28;19959;-59
2022/07/28 02:33:07;;;;;;;;;;;;;;;;;;21164254;28;19949;-63
2022/07/28 02:43:11;;;;;;;;;;;;;;;;;;21164213;28;19920;-63
2022/07/28 02:53:30;;;;;;;;;;;;;;;;;;21163578;28;19916;-61
2022/07/28 03:03:39;;;;;;;;;;;;;;;;;;21163592;28;20053;-61
2022/07/28 03:13:46;;;;;;;;;;;;;;;;;;21162280;28;20022;-61
2022/07/28 03:23:51;;;;;;;;;;;;;;;;;;21162493;28;19966;-60
2022/07/28 03:33:54;;;;;;;;;;;;;;;;;;21163424;28;19924;-52
2022/07/28 03:43:57;;;;;;;;;;;;;;;;;;21163073;27;19988;-61
2022/07/28 03:53:59;;;;;;;;;;;;;;;;;;21177151;28;19973;-57
2022/07/28 04:04:01;;;;;;;;;;;;;;;;;;21176918;28;20340;-53
2022/07/28 04:14:03;;;;;;;;;;;;;;;;;;21175615;28;19947;-65
2022/07/28 04:24:06;;;;;;;;;;;;;;;;;;21175131;28;20022;-64
2022/07/28 04:34:09;;;;;;;;;;;;;;;;;;21174105;28;20256;-62
2022/07/28 04:44:11;;;;;;;;;;;;;;;;;;21173612;28;19920;-64
2022/07/28 04:54:12;;;;;;;;;;;;;;;;;;21175868;28;19919;-56
2022/07/28 05:04:14;;;;;;;;;;;;;;;;;;21171746;28;19920;-53
2022/07/28 05:14:17;;;;;;;;;;;;;;;;;;21170877;28;19924;-60
2022/07/28 05:24:19;;;;;;;;;;;;;;;;;;21171989;28;20430;-54
2022/07/28 05:34:21;;;;;;;;;;;;;;;;;;21169423;28;19963;-56
2022/07/28 05:44:23;;;;;;;;;;;;;;;;;;21169258;28;19923;-59
2022/07/28 05:54:25;;;;;;;;;;;;;;;;;;21170476;28;19919;-54
2022/07/28 06:04:27;;;;;;;;;;;;;;;;;;21166927;28;19919;-57
2022/07/28 06:14:29;;;;;;;;;;;;;;;;;;21164534;28;19927;-57
2022/07/28 06:24:31;;;;;;;;;;;;;;;;;;21166699;28;20432;-63
2022/07/28 06:34:32;;;;;;;;;;;;;;;;;;21164915;28;20384;-54
2022/07/28 06:44:34;;;;;;;;;;;;;;;;;;21165015;28;19923;-59
2022/07/28 06:54:36;;;;;;;;;;;;;;;;;;21165195;28;19926;-60
2022/07/28 07:04:38;;;;;;;;;;;;;;;;;;21164385;28;19951;-56
2022/07/28 07:14:40;;;;;;;;;;;;;;;;;;21077321;28;20367;-61
2022/07/28 07:24:42;;;;;;;;;;;;;;;;;;21090360;28;19926;-53
2022/07/28 07:34:44;;;;;;;;;;;;;;;;;;21095109;28;20017;-54
2022/07/28 07:44:46;;;;;;;;;;;;;;;;;;21096601;28;19960;-54
2022/07/28 07:54:48;;;;;;;;;;;;;;;;;;21094510;28;20376;-53
2022/07/28 08:04:50;;;;;;;;;;;;;;;;;;21092960;28;20061;-55
2022/07/28 08:14:52;;;;;;;;;;;;;;;;;;21171572;28;19963;-55
2022/07/28 08:24:54;;;;;;;;;;;;;;;;;;21175238;28;19923;-57
2022/07/28 08:34:56;;;;;;;;;;;;;;;;;;21173761;28;19972;-55
2022/07/28 08:44:58;;;;;;;;;;;;;;;;;;21173864;28;19955;-56
2022/07/28 08:55:00;;;;;;;;;;;;;;;;;;21172523;28;19927;-56
2022/07/28 09:05:02;;;;;;;;;;;;;;;;;;21171915;28;19926;-55
2022/07/28 09:15:04;;;;;;;;;;;;;;;;;;21170843;28;19985;-57
2022/07/28 09:25:06;;;;;;;;;;;;;;;;;;21173068;28;19919;-54
2022/07/28 09:35:09;;;;;;;;;;;;;;;;;;21170973;28;20386;-60
2022/07/28 09:45:11;;;;;;;;;;;;;;;;;;21169101;28;19920;-54
2022/07/28 09:55:14;;;;;;;;;;;;;;;;;;21167939;28;19923;-57
2022/07/28 10:05:22;;;;;;;;;;;;;;;;;;21167700;27;19919;-57
2022/07/28 10:25:55;;;;;;;;;;;;;;;;;;21243758;28;20011;-56
2022/07/28 10:35:58;;;;;;;;;;;;;;;;;;21246867;27;20014;-59
2022/07/28 10:45:59;;;;;;;;;;;;;;;;;;21240279;27;19974;-63
2022/07/28 10:56:01;;;;;;;;;;;;;;;;;;21233673;28;19931;-57
2022/07/28 11:06:03;;;;;;;;;;;;;;;;;;21235657;27;20280;-62
2022/07/28 11:16:05;;;;;;;;;;;;;;;;;;21232821;27;19931;-60
2022/07/28 11:26:07;;;;;;;;;;;;;;;;;;21180114;27;20375;-66
2022/07/28 11:36:08;;;;;;;;;;;;;;;;;;21175999;28;20402;-61
2022/07/28 11:46:10;;;;;;;;;;;;;;;;;;21174022;28;19923;-62
2022/07/28 11:56:12;;;;;;;;;;;;;;;;;;21173831;28;19931;-62
2022/07/28 12:06:14;;;;;;;;;;;;;;;;;;21171758;28;20016;-62
2022/07/28 12:16:15;;;;;;;;;;;;;;;;;;21172487;27;19947;-59
2022/07/28 12:26:17;;;;;;;;;;;;;;;;;;21171103;28;19928;-60
2022/07/28 12:36:20;;;;;;;;;;;;;;;;;;21169602;28;19924;-67
2022/07/28 12:46:22;;;;;;;;;;;;;;;;;;21169721;27;19969;-70
2022/07/28 12:56:24;;;;;;;;;;;;;;;;;;21170050;28;19955;-59
2022/07/28 13:06:26;;;;;;;;;;;;;;;;;;21166805;28;19927;-61
2022/07/28 13:16:28;;;;;;;;;;;;;;;;;;21167737;28;19928;-53
2022/07/28 13:26:29;;;;;;;;;;;;;;;;;;21171416;28;19935;-58
2022/07/28 13:36:31;;;;;;;;;;;;;;;;;;21165408;28;20073;-60
2022/07/28 13:46:36;;;;;;;;;;;;;;;;;;21165672;28;20363;-55
2022/07/28 13:56:38;;;;;;;;;;;;;;;;;;21163309;28;19930;-66
2022/07/28 14:06:40;;;;;;;;;;;;;;;;;;21163984;28;19923;-62
2022/07/28 14:16:43;;;;;;;;;;;;;;;;;;21162037;28;20372;-65
2022/07/28 14:26:45;;;;;;;;;;;;;;;;;;21163970;28;19927;-65
2022/07/28 14:36:46;;;;;;;;;;;;;;;;;;21166185;28;19923;-62
2022/07/28 14:46:48;;;;;;;;;;;;;;;;;;21163933;28;20295;-66
2022/07/28 14:56:50;;;;;;;;;;;;;;;;;;21171794;28;19924;-65
2022/07/28 15:06:52;;;;;;;;;;;;;;;;;;21178572;28;19924;-65
2022/07/28 15:16:53;;;;;;;;;;;;;;;;;;21178727;28;20360;-63
2022/07/28 15:26:55;;;;;;;;;;;;;;;;;;21176587;28;20342;-60
2022/07/28 15:36:56;;;;;;;;;;;;;;;;;;21176623;28;19930;-56
2022/07/28 15:46:58;;;;;;;;;;;;;;;;;;21175745;28;19924;-53
2022/07/28 15:57:00;;;;;;;;;;;;;;;;;;21173499;28;19924;-56
2022/07/28 16:07:22;;;;;;;;;;;;;;;;;;21173139;28;19924;-54
2022/07/28 16:17:24;;;;;;;;;;;;;;;;;;21172949;28;19947;-56
2022/07/28 16:27:25;;;;;;;;;;;;;;;;;;21171840;28;19924;-54
2022/07/28 16:37:27;;;;;;;;;;;;;;;;;;21171157;28;20272;-54
2022/07/28 16:47:29;;;;;;;;;;;;;;;;;;21169871;28;19931;-54
2022/07/28 16:57:31;;;;;;;;;;;;;;;;;;21169842;27;20288;-53
2022/07/28 17:07:33;;;;;;;;;;;;;;;;;;21167867;28;19924;-54
2022/07/28 17:17:34;;;;;;;;;;;;;;;;;;21169158;28;20010;-54
2022/07/28 17:27:36;;;;;;;;;;;;;;;;;;21165934;28;19923;-56
2022/07/28 17:37:37;;;;;;;;;;;;;;;;;;21166300;28;20313;-57
2022/07/28 17:47:39;;;;;;;;;;;;;;;;;;21166299;28;19931;-67
2022/07/28 17:57:41;;;;;;;;;;;;;;;;;;21165806;28;20272;-54
2022/07/28 18:07:42;;;;;;;;;;;;;;;;;;21165169;28;19954;-55
2022/07/28 18:17:44;;;;;;;;;;;;;;;;;;21163491;28;20057;-57
2022/07/28 18:27:46;;;;;;;;;;;;;;;;;;21164385;28;20408;-58
2022/07/28 18:37:48;;;;;;;;;;;;;;;;;;21180707;28;20407;-57
2022/07/28 18:47:50;;;;;;;;;;;;;;;;;;21180581;28;19923;-58
2022/07/28 18:57:51;;;;;;;;;;;;;;;;;;21182240;27;19927;-55
2022/07/28 19:07:53;;;;;;;;;;;;;;;;;;21178403;28;19968;-54
2022/07/28 19:17:54;;;;;;;;;;;;;;;;;;21177255;28;19924;-60
2022/07/28 19:27:56;;;;;;;;;;;;;;;;;;21176423;28;19924;-55
2022/07/28 19:37:59;;;;;;;;;;;;;;;;;;21176764;28;19937;-54
2022/07/28 19:48:02;;;;;;;;;;;;;;;;;;21173929;28;19931;-54
2022/07/28 19:58:04;;;;;;;;;;;;;;;;;;21173642;28;19932;-53
2022/07/28 20:08:06;;;;;;;;;;;;;;;;;;21173501;28;19923;-54
2022/07/28 20:18:08;;;;;;;;;;;;;;;;;;21171725;28;19935;-54
2022/07/28 20:28:11;;;;;;;;;;;;;;;;;;21171150;28;20410;-60
2022/07/28 20:38:12;;;;;;;;;;;;;;;;;;21171202;28;19946;-57
2022/07/28 20:48:14;;;;;;;;;;;;;;;;;;21170140;28;19924;-60
2022/07/28 20:58:16;;;;;;;;;;;;;;;;;;21168990;28;20299;-58
2022/07/28 21:08:18;;;;;;;;;;;;;;;;;;21169018;28;20056;-55
2022/07/28 21:18:20;;;;;;;;;;;;;;;;;;21167551;28;20036;-57
2022/07/28 21:38:42;;;;;;;;;;;;;;;;;;21166038;28;19949;-55
2022/07/28 21:48:45;;;;;;;;;;;;;;;;;;21166483;28;20012;-58
2022/07/28 21:58:47;;;;;;;;;;;;;;;;;;21166405;28;19973;-56
2022/07/28 22:08:55;;;;;;;;;;;;;;;;;;21164698;28;19932;-57
2022/07/28 22:18:57;;;;;;;;;;;;;;;;;;21164223;28;19930;-58
2022/07/28 22:28:59;;;;;;;;;;;;;;;;;;21162565;28;19924;-59
2022/07/28 22:39:01;;;;;;;;;;;;;;;;;;21163780;28;19930;-54
2022/07/28 22:49:02;;;;;;;;;;;;;;;;;;21162660;28;20076;-55
2022/07/28 22:59:04;;;;;;;;;;;;;;;;;;21162118;28;20340;-64
2022/07/28 23:09:05;;;;;;;;;;;;;;;;;;21162338;28;20390;-60
2022/07/28 23:19:07;;;;;;;;;;;;;;;;;;21170047;28;19924;-59
2022/07/28 23:29:09;;;;;;;;;;;;;;;;;;21175668;28;19978;-56
2022/07/28 23:39:11;;;;;;;;;;;;;;;;;;21175581;28;19966;-63
2022/07/28 23:49:13;;;;;;;;;;;;;;;;;;21174186;28;19931;-55
2022/07/28 23:59:15;;;;;;;;;;;;;;;;;;21174621;28;19924;-63
